createdAt,value
2023-01-26T00:00:06.780Z,96068.72
2023-01-26T00:05:09.241Z,96057.88
2023-01-26T00:10:11.909Z,96057.78
2023-01-26T00:15:14.427Z,96045.41
2023-01-26T00:20:16.761Z,96031.47
2023-01-26T00:25:19.218Z,96026.97
2023-01-26T00:30:21.609Z,96030.13
2023-01-26T00:35:24.102Z,96026.47
2023-01-26T00:40:26.558Z,96025.34
2023-01-26T00:45:28.941Z,96016.41
2023-01-26T00:50:31.317Z,96025.09
2023-01-26T00:55:33.673Z,96014.75
2023-01-26T01:00:36.196Z,96015.16
2023-01-26T01:05:38.583Z,96012.81
2023-01-26T01:10:40.983Z,96007.88
2023-01-26T01:15:43.376Z,96006.53
2023-01-26T01:20:45.668Z,96012.28
2023-01-26T01:25:48.040Z,96011.00
2023-01-26T01:30:50.462Z,96011.97
2023-01-26T01:35:53.164Z,96007.59
2023-01-26T01:40:55.566Z,96004.34
2023-01-26T01:45:57.884Z,96000.94
2023-01-26T01:51:00.280Z,96011.94
2023-01-26T01:56:02.682Z,96009.69
2023-01-26T02:01:05.066Z,96004.88
2023-01-26T02:06:07.468Z,95999.91
2023-01-26T02:11:09.845Z,96000.56
2023-01-26T02:16:12.287Z,95989.56
2023-01-26T02:21:14.730Z,95989.22
2023-01-26T02:26:17.032Z,95982.38
2023-01-26T02:31:19.446Z,95970.19
2023-01-26T02:36:21.978Z,95958.56
2023-01-26T02:41:41.975Z,95957.13
2023-01-26T02:46:44.392Z,95946.50
2023-01-26T02:51:46.729Z,95939.72
2023-01-26T02:56:49.157Z,95933.53
2023-01-26T03:01:51.590Z,95931.81
2023-01-26T03:06:53.937Z,95923.56
2023-01-26T03:11:56.318Z,95916.59
2023-01-26T03:16:58.604Z,95915.09
2023-01-26T03:22:18.540Z,95911.34
2023-01-26T03:27:29.901Z,95909.53
2023-01-26T03:32:32.212Z,95909.41
2023-01-26T03:37:36.987Z,95910.91
2023-01-26T03:42:56.920Z,95906.97
2023-01-26T03:48:16.971Z,95910.50
2023-01-26T03:53:36.895Z,95903.47
2023-01-26T03:58:39.214Z,95905.63
2023-01-26T04:03:59.022Z,95895.47
2023-01-26T04:09:01.395Z,95897.47
2023-01-26T04:14:21.231Z,95902.31
2023-01-26T04:19:41.308Z,95899.56
2023-01-26T04:24:43.693Z,95890.28
2023-01-26T04:29:46.038Z,95888.78
2023-01-26T04:34:48.316Z,95888.00
2023-01-26T04:39:50.660Z,95888.41
2023-01-26T04:44:52.955Z,95881.19
2023-01-26T04:49:55.251Z,95872.06
2023-01-26T04:54:57.582Z,95875.16
2023-01-26T04:59:59.931Z,95881.75
2023-01-26T05:05:02.199Z,95887.53
2023-01-26T05:10:04.678Z,95887.97
2023-01-26T05:15:07.036Z,95896.50
2023-01-26T05:20:09.457Z,95884.22
2023-01-26T05:25:11.966Z,95882.47
2023-01-26T05:30:14.929Z,95880.41
2023-01-26T05:35:17.547Z,95874.78
2023-01-26T05:40:19.885Z,95884.03
2023-01-26T05:45:22.268Z,95880.00
2023-01-26T05:50:24.584Z,95888.13
2023-01-26T05:55:26.903Z,95882.44
2023-01-26T06:00:29.238Z,95886.00
2023-01-26T06:05:31.506Z,95896.34
2023-01-26T06:10:34.842Z,95899.94
2023-01-26T06:15:37.133Z,95895.19
2023-01-26T06:20:39.674Z,95897.13
2023-01-26T06:25:42.130Z,95889.41
2023-01-26T06:30:44.887Z,95890.50
2023-01-26T06:35:47.354Z,95893.19
2023-01-26T06:40:50.883Z,95894.34
2023-01-26T06:45:53.305Z,95902.84
2023-01-26T06:50:55.818Z,95893.47
2023-01-26T06:55:58.560Z,95880.09
2023-01-26T07:01:00.942Z,95886.78
2023-01-26T07:06:03.425Z,95874.41
2023-01-26T07:11:08.011Z,95871.81
2023-01-26T07:16:11.532Z,95877.91
2023-01-26T07:21:13.960Z,95879.41
2023-01-26T07:26:16.529Z,95889.47
2023-01-26T07:31:19.032Z,95883.13
2023-01-26T07:36:21.931Z,95873.44
2023-01-26T07:41:24.305Z,95876.53
2023-01-26T07:46:26.965Z,95873.84
2023-01-26T07:51:29.503Z,95871.06
2023-01-26T07:56:31.881Z,95867.75
2023-01-26T08:01:34.334Z,95860.75
2023-01-26T08:06:36.753Z,95861.38
2023-01-26T08:11:39.474Z,95856.91
2023-01-26T08:16:41.870Z,95851.44
2023-01-26T08:21:44.182Z,95857.19
2023-01-26T08:26:46.504Z,95841.16
2023-01-26T08:31:48.838Z,95839.94
2023-01-26T08:36:51.156Z,95840.41
2023-01-26T08:41:53.521Z,95845.66
2023-01-26T08:46:55.808Z,95835.88
2023-01-26T08:51:58.106Z,95843.69
2023-01-26T08:57:00.421Z,95846.78
2023-01-26T09:02:02.861Z,95844.31
2023-01-26T09:07:05.812Z,95853.41
2023-01-26T09:12:08.483Z,95833.22
2023-01-26T09:17:10.896Z,95843.69
2023-01-26T09:22:13.222Z,95841.06
2023-01-26T09:27:15.577Z,95841.66
2023-01-26T09:32:18.060Z,95843.38
2023-01-26T09:37:20.616Z,95855.16
2023-01-26T09:42:23.277Z,95852.31
2023-01-26T09:47:26.975Z,95858.75
2023-01-26T09:52:29.304Z,95867.19
2023-01-26T09:57:31.632Z,95846.19
2023-01-26T10:02:34.155Z,95849.84
2023-01-26T10:07:36.519Z,95837.25
2023-01-26T10:12:38.859Z,95834.06
2023-01-26T10:17:41.184Z,95834.44
2023-01-26T10:22:43.505Z,95827.47
2023-01-26T10:27:46.693Z,95828.84
2023-01-26T10:32:49.062Z,95824.22
2023-01-26T10:37:52.782Z,95829.91
2023-01-26T10:42:55.146Z,95815.56
2023-01-26T10:47:57.472Z,95823.69
2023-01-26T10:52:59.819Z,95822.50
2023-01-26T10:58:02.184Z,95812.78
2023-01-26T11:03:04.637Z,95808.69
2023-01-26T11:08:08.728Z,95804.41
2023-01-26T11:13:11.267Z,95793.09
2023-01-26T11:18:13.545Z,95802.03
2023-01-26T11:23:15.937Z,95795.94
2023-01-26T11:28:18.480Z,95801.44
2023-01-26T11:33:20.942Z,95791.50
2023-01-26T11:38:23.272Z,95795.94
2023-01-26T11:43:25.688Z,95788.59
2023-01-26T11:48:28.674Z,95794.69
2023-01-26T11:53:30.950Z,95793.88
2023-01-26T11:58:33.312Z,95792.25
2023-01-26T12:03:35.823Z,95793.06
2023-01-26T12:08:39.552Z,95779.63
2023-01-26T12:13:42.261Z,95776.34
2023-01-26T12:18:55.728Z,95774.16
2023-01-26T12:24:02.338Z,95765.84
2023-01-26T12:29:09.237Z,95762.03
2023-01-26T12:34:11.935Z,95755.75
2023-01-26T12:39:14.468Z,95763.47
2023-01-26T12:44:17.073Z,95765.03
2023-01-26T12:49:19.982Z,95762.34
2023-01-26T12:54:22.389Z,95756.69
2023-01-26T12:59:47.311Z,95768.84
2023-01-26T13:04:49.125Z,95775.75
2023-01-26T13:09:51.947Z,95758.09
2023-01-26T13:14:54.412Z,95756.41
2023-01-26T13:19:59.769Z,95755.13
2023-01-26T13:25:02.581Z,95752.56
2023-01-26T13:30:05.206Z,95753.88
2023-01-26T13:35:07.702Z,95746.56
2023-01-26T13:40:10.415Z,95751.25
2023-01-26T13:45:13.401Z,95744.16
2023-01-26T13:50:15.855Z,95743.50
2023-01-26T13:55:18.205Z,95742.13
2023-01-26T14:00:20.546Z,95749.25
2023-01-26T14:05:23.252Z,95746.00
2023-01-26T14:10:25.710Z,95743.31
2023-01-26T14:15:28.678Z,95752.84
2023-01-26T14:20:31.075Z,95744.75
2023-01-26T14:25:33.497Z,95752.28
2023-01-26T14:30:36.153Z,95757.13
2023-01-26T14:35:38.458Z,95743.16
2023-01-26T14:40:40.869Z,95746.41
2023-01-26T14:45:43.425Z,95742.78
2023-01-26T14:50:45.811Z,95745.41
2023-01-26T14:55:48.367Z,95742.16
2023-01-26T15:00:50.889Z,95742.94
2023-01-26T15:05:53.427Z,95742.34
2023-01-26T15:11:16.201Z,95732.22
2023-01-26T15:16:18.741Z,95736.84
2023-01-26T15:21:21.560Z,95738.03
2023-01-26T15:26:23.893Z,95736.63
2023-01-26T15:31:26.288Z,95743.97
2023-01-26T15:36:28.834Z,95749.03
2023-01-26T15:41:31.558Z,95762.81
2023-01-26T15:46:34.179Z,95766.25
2023-01-26T15:51:36.501Z,95764.59
2023-01-26T15:56:39.035Z,95770.28
2023-01-26T16:01:41.454Z,95765.22
2023-01-26T16:06:43.757Z,95771.84
2023-01-26T16:11:46.018Z,95767.03
2023-01-26T16:16:48.493Z,95767.56
2023-01-26T16:21:51.033Z,95767.81
2023-01-26T16:26:54.750Z,95759.47
2023-01-26T16:31:57.143Z,95769.19
2023-01-26T16:36:59.665Z,95763.13
2023-01-26T16:42:01.954Z,95764.53
2023-01-26T16:47:04.310Z,95765.19
2023-01-26T16:52:06.639Z,95756.47
2023-01-26T16:57:08.988Z,95760.16
2023-01-26T17:02:11.411Z,95764.16
2023-01-26T17:07:13.784Z,95772.28
2023-01-26T17:12:16.234Z,95772.66
2023-01-26T17:17:18.622Z,95781.97
2023-01-26T17:22:21.125Z,95776.28
2023-01-26T17:27:23.924Z,95781.59
2023-01-26T17:32:26.284Z,95770.47
2023-01-26T17:37:29.230Z,95774.53
2023-01-26T17:42:34.983Z,95779.41
2023-01-26T17:47:39.725Z,95777.13
2023-01-26T17:52:42.198Z,95775.28
2023-01-26T17:57:44.608Z,95769.44
2023-01-26T18:02:46.916Z,95773.66
2023-01-26T18:07:49.392Z,95772.13
2023-01-26T18:12:51.742Z,95764.59
2023-01-26T18:17:54.071Z,95767.06
2023-01-26T18:22:56.753Z,95770.72
2023-01-26T18:27:59.056Z,95773.94
2023-01-26T18:33:01.553Z,95766.63
2023-01-26T18:38:03.932Z,95769.03
2023-01-26T18:43:06.320Z,95778.00
2023-01-26T18:48:08.788Z,95769.88
2023-01-26T18:53:11.259Z,95760.97
2023-01-26T18:58:13.542Z,95764.81
2023-01-26T19:03:17.492Z,95772.69
2023-01-26T19:08:22.620Z,95774.31
2023-01-26T19:13:25.285Z,95762.81
2023-01-26T19:18:28.310Z,95777.63
2023-01-26T19:23:30.626Z,95767.06
2023-01-26T19:28:33.154Z,95770.31
2023-01-26T19:33:35.459Z,95756.91
2023-01-26T19:38:39.344Z,95759.97
2023-01-26T19:43:41.929Z,95760.00
2023-01-26T19:48:44.538Z,95766.66
2023-01-26T19:53:46.966Z,95767.91
2023-01-26T19:58:49.307Z,95759.19
2023-01-26T20:03:51.687Z,95763.03
2023-01-26T20:08:54.175Z,95769.31
2023-01-26T20:13:56.894Z,95766.69
2023-01-26T20:18:59.731Z,95754.91
2023-01-26T20:24:06.810Z,95758.34
2023-01-26T20:29:09.575Z,95761.56
2023-01-26T20:34:12.121Z,95758.88
2023-01-26T20:39:14.525Z,95756.84
2023-01-26T20:44:17.352Z,95745.94
2023-01-26T20:49:20.414Z,95752.41
2023-01-26T20:54:23.227Z,95745.94
2023-01-26T20:59:25.731Z,95745.31
2023-01-26T21:04:30.769Z,95745.94
2023-01-26T21:09:33.267Z,95747.34
2023-01-26T21:14:35.646Z,95754.03
2023-01-26T21:19:38.265Z,95742.91
2023-01-26T21:24:40.726Z,95742.72
2023-01-26T21:29:43.196Z,95745.97
2023-01-26T21:34:45.688Z,95747.16
2023-01-26T21:39:48.166Z,95737.88
2023-01-26T21:45:10.781Z,95727.69
2023-01-26T21:50:13.448Z,95739.91
2023-01-26T21:55:15.860Z,95733.81
2023-01-26T22:00:18.202Z,95745.41
2023-01-26T22:05:20.619Z,95735.03
2023-01-26T22:10:23.026Z,95736.25
2023-01-26T22:15:25.897Z,95738.66
2023-01-26T22:20:28.268Z,95726.50
2023-01-26T22:25:30.578Z,95735.66
2023-01-26T22:30:32.887Z,95729.34
2023-01-26T22:35:35.196Z,95732.13
2023-01-26T22:40:37.523Z,95737.00
2023-01-26T22:45:39.869Z,95745.50
2023-01-26T22:50:42.161Z,95734.75
2023-01-26T22:55:44.447Z,95731.94
2023-01-26T23:00:46.902Z,95729.69
2023-01-26T23:05:49.308Z,95732.09
2023-01-26T23:10:51.721Z,95733.69
2023-01-26T23:15:54.057Z,95725.19
2023-01-26T23:20:58.348Z,95729.88
2023-01-26T23:26:00.588Z,95723.38
2023-01-26T23:31:02.956Z,95724.84
2023-01-26T23:36:05.320Z,95716.53
2023-01-26T23:41:08.477Z,95712.66
2023-01-26T23:46:10.809Z,95716.75
2023-01-26T23:51:13.327Z,95714.56
2023-01-26T23:56:15.634Z,95705.41
